East Fultonham, Ohio
Current Conditions -  °F | °C
As of 2:53 PM on Wednesday 26 Nov 2014 (Local Time) from KZZV Reporting Station
Overcast Overcast  
Wind Chill: 34°   Ceiling: 2500
Heat Index: 39°   Visibility: 10mi
Dew Point: 29°   Wind: 7mph
Humidity: 67%   Direction: 350°N
Pressure: 30.01"   Gusts: NA
Location:  39.85°N, 82.12°W
Report Text: KZZV 261953Z AUTO 35006KT 10SM OVC025 04/M02 A3001 RMK AO2 SLP169 T00391017
Loading
Personal Weather Stations






























Interactive Weather Map New forecast layout! Learn more

10-Day Weather Forecast

Advertisements
Track Severe Weather on mobile